Aeroporto :







RITROVATECI SU...

 
LOGIN :

Iscrizione | Disclaimer

   EN    FR    IT 

 









Sommario :    VFR   VFR Marginale   IFR   IFR Intensivo   IFR Molto Intensivo
Visibilità : 
Base nubi : 
>= 8 km
>= 3000ft
5 / 8 km
1000 / 3000 ft
1500m / 5 km
500 / 1000 ft
800 / 1500m
200 / 500 ft
< 800m
< 200 ft
Simboli :   Temporali  Nebbia  Neve Forte  Precipitazioni Forti  Vento > 20 kt






- Altitudine del aeroporto : 270 ft
- Codice IATA : YMX


CYMX - Montreal International Mirabel

ULTIMO METAR :
  • 241200Z 21005KT 25SM R11/1800FT/N FEW060 M03/M05 A2983 RMK SC2 SLP107

METARs OBSOLETI :
  • 241100Z 00000KT 25SM FEW060 M04/M06 A2983 RMK SC2 SLP109
  • 241000Z 00000KT 25SM BKN060 M04/M06 A2983 RMK SC5 SLP106

TAF TAF CYMX
Valido dal 24 a 12 ore il 25 a 12 ore UTC


241138Z 2412/2512 VRB03KT P6SM FEW060
FM241600 23008G18KT P6SM BKN025
BECMG 2420/2422 23008KT
FM250100 VRB03KT P6SM SCT030 BKN180
FM250900 01005KT P6SM SCT030 BKN130 RMK NXT FCST BY 241800Z



MetMap, La meteo Aeronautica in un colpo d'occhio ! - Copyright ORBIFLY Dicembre 2007 - Disclaimer

ORBIFLY MET'MAP TEAM :

Programmazione e sviluppo : Alexandra Zaïnal
Concezione : Baudouin d'Aumeries
Aiuto per la programmazione : Marc-Olivier Méhu
Supporto tecnico e logistico : Manuel Goepfert
Aiuto per la traduzione : Arnaldo La Scala

Contatto : metmap@orbifly.com




FONTI E CREDITI :

   NOAA